createdAt,value
2018-04-29T00:00:37.224Z,56.20
2018-04-29T00:01:37.228Z,56.29
2018-04-29T00:02:37.212Z,56.29
2018-04-29T00:03:37.207Z,56.20
2018-04-29T00:04:37.208Z,56.39
2018-04-29T00:05:37.239Z,56.39
2018-04-29T00:06:37.188Z,56.10
2018-04-29T00:07:37.184Z,55.90
2018-04-29T00:08:37.178Z,56.39
2018-04-29T00:09:37.171Z,56.39
2018-04-29T00:10:37.165Z,56.48
2018-04-29T00:11:37.159Z,56.29
2018-04-29T00:12:37.160Z,56.58
2018-04-29T00:13:37.148Z,56.58
2018-04-29T00:14:37.141Z,56.58
2018-04-29T00:15:37.136Z,56.58
2018-04-29T00:16:37.130Z,56.58
2018-04-29T00:17:37.130Z,57.16
2018-04-29T00:18:37.118Z,56.87
2018-04-29T00:19:37.124Z,56.87
2018-04-29T00:20:37.125Z,56.87
2018-04-29T00:21:37.101Z,56.87
2018-04-29T00:22:37.095Z,56.87
2018-04-29T00:23:37.091Z,56.96
2018-04-29T00:24:37.083Z,57.16
2018-04-29T00:25:37.077Z,57.06
2018-04-29T00:26:37.073Z,56.94
2018-04-29T00:27:37.066Z,57.06
2018-04-29T00:28:37.072Z,56.77
2018-04-29T00:29:37.056Z,56.96
2018-04-29T00:30:37.053Z,56.84
2018-04-29T00:31:37.042Z,57.16
2018-04-29T00:32:37.038Z,57.14
2018-04-29T00:33:37.027Z,57.14
2018-04-29T00:34:37.025Z,57.62
2018-04-29T00:35:37.020Z,57.62
2018-04-29T00:36:37.016Z,57.62
2018-04-29T00:37:37.004Z,57.62
2018-04-29T00:38:37.019Z,57.52
2018-04-29T00:39:36.996Z,57.62
2018-04-29T00:40:36.991Z,57.42
2018-04-29T00:41:36.983Z,57.62
2018-04-29T00:42:36.989Z,57.32
2018-04-29T00:43:36.969Z,57.32
2018-04-29T00:44:36.965Z,57.42
2018-04-29T00:45:36.959Z,57.54
2018-04-29T00:46:36.961Z,57.64
2018-04-29T00:47:36.949Z,57.52
2018-04-29T00:48:36.948Z,57.45
2018-04-29T00:49:36.936Z,57.74
2018-04-29T00:50:36.932Z,57.45
2018-04-29T00:51:36.923Z,57.90
2018-04-29T00:52:36.923Z,57.81
2018-04-29T00:53:36.921Z,57.81
2018-04-29T00:54:36.909Z,57.81
2018-04-29T00:55:36.901Z,57.81
2018-04-29T00:56:36.894Z,57.81
2018-04-29T00:57:36.892Z,57.71
2018-04-29T00:58:36.886Z,57.42
2018-04-29T00:59:36.873Z,57.81
2018-04-29T01:00:36.872Z,57.84
2018-04-29T01:01:36.876Z,57.84
2018-04-29T01:02:36.861Z,57.74
2018-04-29T01:03:36.853Z,57.74
2018-04-29T01:04:36.852Z,57.52
2018-04-29T01:05:36.849Z,57.90
2018-04-29T01:06:36.836Z,57.52
2018-04-29T01:07:36.832Z,57.52
2018-04-29T01:08:36.833Z,57.62
2018-04-29T01:09:36.821Z,57.90
2018-04-29T01:10:36.816Z,58.03
2018-04-29T01:11:36.810Z,58.10
2018-04-29T01:12:36.806Z,58.12
2018-04-29T01:13:36.803Z,57.62
2018-04-29T01:14:36.792Z,57.81
2018-04-29T01:15:36.782Z,57.71
2018-04-29T01:16:36.789Z,57.81
2018-04-29T01:17:36.777Z,57.71
2018-04-29T01:18:36.769Z,57.71
2018-04-29T01:19:36.766Z,57.81
2018-04-29T01:20:36.760Z,57.90
2018-04-29T01:21:36.746Z,57.81
2018-04-29T01:22:36.747Z,57.71
2018-04-29T01:23:36.737Z,57.62
2018-04-29T01:24:36.739Z,57.81
2018-04-29T01:25:36.730Z,57.71
2018-04-29T01:26:36.730Z,57.71
2018-04-29T01:27:36.716Z,57.62
2018-04-29T01:28:36.710Z,57.81
2018-04-29T01:29:36.704Z,57.90
2018-04-29T01:30:36.699Z,58.10
2018-04-29T01:31:36.692Z,58.10
2018-04-29T01:32:36.688Z,57.81
2018-04-29T01:33:36.687Z,57.81
2018-04-29T01:34:36.682Z,57.84
2018-04-29T01:35:36.671Z,58.29
2018-04-29T01:36:36.663Z,57.71
2018-04-29T01:37:36.663Z,58.19
2018-04-29T01:38:36.649Z,58.39
2018-04-29T01:39:36.653Z,58.19
2018-04-29T01:40:36.642Z,58.10
2018-04-29T01:41:36.639Z,58.39
2018-04-29T01:42:36.633Z,58.29
2018-04-29T01:43:36.623Z,58.10
2018-04-29T01:44:36.621Z,58.10
2018-04-29T01:45:36.614Z,58.77
2018-04-29T01:46:36.606Z,58.68
2018-04-29T01:47:36.603Z,58.39
2018-04-29T01:48:36.596Z,58.58
2018-04-29T01:49:36.592Z,58.58
2018-04-29T01:50:36.585Z,58.48
2018-04-29T01:51:36.655Z,58.58
2018-04-29T01:52:36.575Z,58.48
2018-04-29T01:53:36.569Z,58.58
2018-04-29T01:54:36.565Z,58.29
2018-04-29T01:55:36.562Z,58.29
2018-04-29T01:56:36.544Z,58.39
2018-04-29T01:57:36.546Z,58.29
2018-04-29T01:58:36.541Z,58.39
2018-04-29T01:59:36.538Z,58.19
2018-04-29T02:00:36.528Z,58.29
2018-04-29T02:01:36.523Z,58.39
2018-04-29T02:02:36.516Z,58.29
2018-04-29T02:03:36.507Z,58.39
2018-04-29T02:04:36.503Z,58.97
2018-04-29T02:05:36.498Z,58.48
2018-04-29T02:06:36.499Z,58.97
2018-04-29T02:07:36.492Z,58.77
2018-04-29T02:08:36.480Z,58.87
2018-04-29T02:09:36.483Z,58.77
2018-04-29T02:10:36.472Z,59.25
2018-04-29T02:11:36.465Z,59.06
2018-04-29T02:12:36.457Z,59.16
2018-04-29T02:13:36.449Z,58.97
2018-04-29T02:14:36.468Z,59.16
2018-04-29T02:15:36.443Z,59.16
2018-04-29T02:16:36.452Z,59.06
2018-04-29T02:17:36.431Z,59.06
2018-04-29T02:18:36.428Z,59.16
2018-04-29T02:19:36.421Z,58.97
2018-04-29T02:20:36.415Z,58.87
2018-04-29T02:21:36.409Z,59.06
2018-04-29T02:22:36.403Z,59.06
2018-04-29T02:23:36.398Z,59.06
2018-04-29T02:24:36.396Z,59.25
2018-04-29T02:25:36.411Z,59.16
2018-04-29T02:26:36.380Z,59.16
2018-04-29T02:27:36.400Z,58.87
2018-04-29T02:28:36.376Z,58.68
2018-04-29T02:29:36.374Z,58.87
2018-04-29T02:30:36.356Z,59.06
2018-04-29T02:31:36.357Z,59.25
2018-04-29T02:32:36.356Z,59.06
2018-04-29T02:33:36.341Z,58.87
2018-04-29T02:34:36.335Z,58.97
2018-04-29T02:35:36.329Z,59.06
2018-04-29T02:36:36.321Z,59.16
2018-04-29T02:37:36.318Z,59.06
2018-04-29T02:38:36.312Z,59.25
2018-04-29T02:39:36.312Z,59.35
2018-04-29T02:40:36.300Z,59.35
2018-04-29T02:41:36.299Z,59.35
2018-04-29T02:42:36.289Z,59.35
2018-04-29T02:43:36.283Z,59.45
2018-04-29T02:44:36.275Z,59.55
2018-04-29T02:45:36.272Z,59.55
2018-04-29T02:46:36.271Z,59.45
2018-04-29T02:47:36.260Z,59.55
2018-04-29T02:48:36.255Z,59.45
2018-04-29T02:49:36.250Z,59.45
2018-04-29T02:50:36.243Z,59.35
2018-04-29T02:51:36.242Z,59.83
2018-04-29T02:52:36.231Z,59.45
2018-04-29T02:53:36.233Z,59.55
2018-04-29T02:54:36.221Z,59.55
2018-04-29T02:55:36.223Z,59.74
2018-04-29T02:56:36.210Z,59.55
2018-04-29T02:57:36.204Z,59.45
2018-04-29T02:58:36.197Z,59.93
2018-04-29T02:59:36.190Z,60.03
2018-04-29T03:00:36.189Z,59.83
2018-04-29T03:01:36.181Z,59.64
2018-04-29T03:02:36.173Z,59.74
2018-04-29T03:03:36.180Z,59.74
2018-04-29T03:04:36.161Z,59.83
2018-04-29T03:05:36.157Z,59.83
2018-04-29T03:06:36.155Z,59.83
2018-04-29T03:07:36.145Z,59.93
2018-04-29T03:08:36.139Z,59.83
2018-04-29T03:09:36.136Z,59.83
2018-04-29T03:10:36.134Z,59.16
2018-04-29T03:11:36.122Z,59.64
2018-04-29T03:12:36.116Z,59.55
2018-04-29T03:13:36.113Z,59.64
2018-04-29T03:14:36.109Z,59.64
2018-04-29T03:15:36.100Z,59.55
2018-04-29T03:16:36.092Z,59.74
2018-04-29T03:17:36.082Z,59.64
2018-04-29T03:18:36.084Z,59.64
2018-04-29T03:19:36.080Z,59.64
2018-04-29T03:20:36.066Z,59.64
2018-04-29T03:21:36.064Z,60.03
2018-04-29T03:22:36.064Z,59.83
2018-04-29T03:23:36.052Z,59.83
2018-04-29T03:24:36.051Z,59.93
2018-04-29T03:25:36.043Z,59.83
2018-04-29T03:26:36.037Z,59.64
2018-04-29T03:27:36.029Z,59.93
2018-04-29T03:28:36.027Z,60.03
2018-04-29T03:29:36.028Z,60.03
2018-04-29T03:30:36.013Z,60.03
2018-04-29T03:31:36.038Z,59.93
2018-04-29T03:32:36.001Z,59.64
2018-04-29T03:33:36.001Z,59.83
2018-04-29T03:34:35.993Z,59.74
2018-04-29T03:35:35.984Z,59.83
2018-04-29T03:36:35.976Z,59.93
2018-04-29T03:37:35.972Z,59.64
2018-04-29T03:38:35.969Z,59.64
2018-04-29T03:39:35.967Z,59.45
2018-04-29T03:40:35.954Z,59.45
2018-04-29T03:41:35.948Z,59.83
2018-04-29T03:42:35.940Z,59.74
2018-04-29T03:43:35.939Z,59.93
2018-04-29T03:44:35.931Z,59.83
2018-04-29T03:45:35.927Z,59.55
2018-04-29T03:46:35.921Z,59.55
2018-04-29T03:47:35.916Z,59.74
2018-04-29T03:48:35.910Z,59.74
2018-04-29T03:49:35.905Z,59.45
2018-04-29T03:50:35.899Z,59.83
2018-04-29T03:51:35.885Z,59.64
2018-04-29T03:52:35.888Z,59.55
2018-04-29T03:53:35.878Z,59.74
2018-04-29T03:54:35.887Z,59.83
2018-04-29T03:55:35.873Z,59.45
2018-04-29T03:56:35.870Z,59.55
2018-04-29T03:57:35.858Z,59.55
2018-04-29T03:58:35.852Z,59.64
2018-04-29T03:59:35.845Z,59.83
2018-04-29T04:00:35.843Z,59.74
2018-04-29T04:01:35.838Z,59.64
2018-04-29T04:02:35.851Z,59.83
2018-04-29T04:03:35.823Z,59.64
2018-04-29T04:04:35.824Z,59.93
2018-04-29T04:05:35.815Z,59.64
2018-04-29T04:06:35.811Z,59.74
2018-04-29T04:07:35.800Z,59.74
2018-04-29T04:08:35.791Z,60.03
2018-04-29T04:09:35.799Z,59.74
2018-04-29T04:10:35.782Z,59.55
2018-04-29T04:11:35.788Z,59.74
2018-04-29T04:12:35.775Z,59.55
2018-04-29T04:13:35.766Z,59.74
2018-04-29T04:14:35.762Z,59.93
2018-04-29T04:15:35.754Z,59.55
2018-04-29T04:16:35.748Z,59.55
2018-04-29T04:17:35.744Z,59.35
2018-04-29T04:18:35.736Z,59.55
2018-04-29T04:19:35.732Z,59.83
2018-04-29T04:20:35.726Z,59.83
2018-04-29T04:21:35.725Z,59.77
2018-04-29T04:22:35.716Z,59.64
2018-04-29T04:23:35.710Z,60.03
2018-04-29T04:24:35.706Z,59.93
2018-04-29T04:25:35.701Z,59.93
2018-04-29T04:26:35.690Z,59.64
2018-04-29T04:27:35.690Z,59.64
2018-04-29T04:28:35.679Z,59.64
2018-04-29T04:29:35.694Z,59.55
2018-04-29T04:30:35.737Z,59.93
2018-04-29T04:31:35.662Z,59.93
2018-04-29T04:32:35.705Z,59.93
2018-04-29T04:33:35.652Z,60.03
2018-04-29T04:34:35.651Z,60.06
2018-04-29T04:35:35.640Z,59.93
2018-04-29T04:36:35.637Z,59.93
2018-04-29T04:37:35.631Z,59.93
2018-04-29T04:38:35.665Z,59.93
2018-04-29T04:39:35.640Z,59.64
2018-04-29T04:40:35.610Z,60.03
2018-04-29T04:41:35.607Z,60.03
2018-04-29T04:42:35.608Z,59.83
2018-04-29T04:43:35.621Z,60.03
2018-04-29T04:44:35.599Z,59.83
2018-04-29T04:45:35.583Z,59.16
2018-04-29T04:46:35.580Z,59.74
2018-04-29T04:47:35.571Z,59.64
2018-04-29T04:48:35.567Z,59.74
2018-04-29T04:49:35.565Z,59.74
2018-04-29T04:50:35.558Z,59.25
2018-04-29T04:51:35.547Z,59.64
2018-04-29T04:52:35.548Z,59.35
2018-04-29T04:53:35.535Z,59.74
2018-04-29T04:54:35.534Z,59.45
2018-04-29T04:55:35.527Z,59.45
2018-04-29T04:56:35.520Z,59.55
2018-04-29T04:57:35.516Z,59.74
2018-04-29T04:58:35.508Z,59.93
2018-04-29T04:59:35.511Z,59.55
2018-04-29T05:00:35.509Z,60.03
2018-04-29T05:01:35.500Z,59.74
2018-04-29T05:02:35.495Z,59.55
2018-04-29T05:03:35.477Z,59.74
2018-04-29T05:04:35.473Z,59.74
2018-04-29T05:05:35.468Z,59.74
2018-04-29T05:06:35.459Z,59.74
2018-04-29T05:07:35.459Z,59.74
2018-04-29T05:08:35.452Z,59.93
2018-04-29T05:09:35.444Z,59.74
2018-04-29T05:10:35.440Z,59.83
2018-04-29T05:11:35.457Z,59.74
2018-04-29T05:12:35.428Z,59.93
2018-04-29T05:13:35.422Z,59.74
2018-04-29T05:14:35.460Z,59.74
2018-04-29T05:15:35.418Z,59.74
2018-04-29T05:16:35.403Z,59.74
2018-04-29T05:17:35.398Z,59.74
2018-04-29T05:18:35.397Z,59.93
2018-04-29T05:19:35.397Z,59.74
2018-04-29T05:20:35.383Z,59.74
2018-04-29T05:21:35.377Z,59.93
2018-04-29T05:22:35.371Z,59.93
2018-04-29T05:23:35.364Z,59.64
2018-04-29T05:24:35.361Z,60.31
2018-04-29T05:25:35.353Z,60.22
2018-04-29T05:26:35.347Z,60.51
2018-04-29T05:27:35.342Z,59.45
2018-04-29T05:28:35.334Z,59.64
2018-04-29T05:29:35.333Z,59.64
2018-04-29T05:30:35.330Z,59.55
2018-04-29T05:31:35.326Z,59.64
2018-04-29T05:32:35.311Z,59.74
2018-04-29T05:33:35.305Z,59.35
2018-04-29T05:34:35.321Z,59.35
2018-04-29T05:35:35.302Z,59.45
2018-04-29T05:36:35.308Z,59.45
2018-04-29T05:37:35.284Z,59.25
2018-04-29T05:38:35.279Z,59.55
2018-04-29T05:39:35.276Z,59.93
2018-04-29T05:40:35.271Z,59.45
2018-04-29T05:41:35.261Z,59.64
2018-04-29T05:42:35.257Z,60.51
2018-04-29T05:43:35.249Z,59.55
2018-04-29T05:44:35.271Z,59.74
2018-04-29T05:45:35.239Z,59.74
2018-04-29T05:46:35.237Z,59.74
2018-04-29T05:47:35.224Z,59.93
2018-04-29T05:48:35.217Z,60.31
2018-04-29T05:49:35.215Z,59.83
2018-04-29T05:50:35.208Z,59.64
2018-04-29T05:51:35.205Z,59.64
2018-04-29T05:52:35.205Z,59.55
2018-04-29T05:53:35.200Z,59.55
2018-04-29T05:54:35.187Z,59.25
2018-04-29T05:55:35.174Z,59.45
2018-04-29T05:56:35.174Z,59.35
2018-04-29T05:57:35.172Z,59.45
2018-04-29T05:58:35.166Z,59.45
2018-04-29T05:59:35.160Z,59.74
2018-04-29T06:00:35.155Z,59.74
2018-04-29T06:01:35.150Z,59.83
2018-04-29T06:02:35.148Z,60.03
2018-04-29T06:03:35.136Z,60.03
2018-04-29T06:04:35.135Z,60.03
2018-04-29T06:05:35.120Z,60.22
2018-04-29T06:06:35.133Z,59.93
2018-04-29T06:07:35.111Z,60.03
2018-04-29T06:08:35.109Z,59.93
2018-04-29T06:09:35.104Z,60.03
2018-04-29T06:10:35.097Z,60.03
2018-04-29T06:11:35.090Z,60.03
2018-04-29T06:12:35.085Z,60.03
2018-04-29T06:13:35.083Z,60.03
2018-04-29T06:14:35.079Z,59.93
2018-04-29T06:15:35.065Z,60.22
2018-04-29T06:16:35.064Z,60.03
2018-04-29T06:17:35.060Z,59.93
2018-04-29T06:18:35.052Z,59.93
2018-04-29T06:19:35.047Z,60.22
2018-04-29T06:20:35.076Z,60.22
2018-04-29T06:21:35.034Z,60.31
2018-04-29T06:22:35.028Z,60.41
2018-04-29T06:23:35.022Z,60.51
2018-04-29T06:24:35.013Z,60.61
2018-04-29T06:25:35.021Z,60.41
2018-04-29T06:26:35.079Z,61.09
2018-04-29T06:27:35.002Z,61.09
2018-04-29T06:28:34.995Z,60.89
2018-04-29T06:29:34.989Z,60.99
2018-04-29T06:30:34.986Z,60.80
2018-04-29T06:31:34.976Z,60.80
2018-04-29T06:32:34.971Z,60.71
2018-04-29T06:33:34.964Z,61.28
2018-04-29T06:34:34.962Z,60.89
2018-04-29T06:35:34.948Z,61.38
2018-04-29T06:36:34.961Z,61.47
2018-04-29T06:37:34.941Z,61.41
2018-04-29T06:38:34.944Z,61.41
2018-04-29T06:39:34.933Z,61.28
2018-04-29T06:40:34.924Z,61.28
2018-04-29T06:41:34.918Z,61.80
2018-04-29T06:42:34.917Z,61.57
2018-04-29T06:43:34.931Z,62.18
2018-04-29T06:44:34.904Z,62.37
2018-04-29T06:45:34.899Z,62.05
2018-04-29T06:46:34.938Z,62.05
2018-04-29T06:47:34.884Z,61.99
2018-04-29T06:48:34.880Z,61.99
2018-04-29T06:49:34.868Z,62.08
2018-04-29T06:50:34.868Z,62.08
2018-04-29T06:51:34.871Z,61.99
2018-04-29T06:52:34.854Z,62.08
2018-04-29T06:53:34.931Z,62.08
2018-04-29T06:54:34.845Z,62.18
2018-04-29T06:55:34.841Z,62.08
2018-04-29T06:56:34.837Z,61.99
2018-04-29T06:57:34.825Z,61.92
2018-04-29T06:58:34.826Z,61.83
2018-04-29T06:59:34.833Z,61.99
2018-04-29T07:00:34.810Z,61.99
2018-04-29T07:01:34.804Z,62.08
2018-04-29T07:02:34.827Z,62.28
2018-04-29T07:03:34.791Z,62.08
2018-04-29T07:04:34.783Z,61.70
2018-04-29T07:05:34.779Z,61.51
2018-04-29T07:06:34.773Z,61.51
2018-04-29T07:07:34.771Z,60.93
2018-04-29T07:08:34.759Z,61.02
2018-04-29T07:09:34.751Z,60.44
2018-04-29T07:10:34.750Z,60.18
2018-04-29T07:11:34.736Z,60.18
2018-04-29T07:12:34.730Z,59.51
2018-04-29T07:13:34.726Z,59.70
2018-04-29T07:14:34.720Z,59.89
2018-04-29T07:15:34.715Z,59.89
2018-04-29T07:16:34.707Z,59.60
2018-04-29T07:17:34.700Z,59.80
2018-04-29T07:18:34.693Z,59.41
2018-04-29T07:19:34.686Z,59.31
2018-04-29T07:20:34.749Z,59.15
2018-04-29T07:21:34.676Z,59.05
2018-04-29T07:22:34.665Z,59.15
2018-04-29T07:23:34.718Z,59.25
2018-04-29T07:24:34.643Z,58.76
2018-04-29T07:25:34.649Z,58.57
2018-04-29T07:26:34.637Z,58.28
2018-04-29T07:27:34.632Z,58.18
2018-04-29T07:28:34.660Z,58.47
2018-04-29T07:29:34.627Z,58.76
2018-04-29T07:30:34.612Z,58.67
2018-04-29T07:31:34.608Z,58.76
2018-04-29T07:32:34.600Z,58.18
2018-04-29T07:33:34.592Z,58.18
2018-04-29T07:34:34.585Z,58.09
2018-04-29T07:35:34.578Z,58.28
2018-04-29T07:36:34.577Z,57.89
2018-04-29T07:37:34.572Z,57.79
2018-04-29T07:38:34.557Z,58.21
2018-04-29T07:39:34.552Z,57.70
2018-04-29T07:40:34.545Z,58.28
2018-04-29T07:41:34.536Z,57.99
2018-04-29T07:42:34.532Z,58.09
2018-04-29T07:43:34.533Z,57.89
2018-04-29T07:44:34.521Z,58.09
2018-04-29T07:45:34.513Z,57.99
2018-04-29T07:46:34.516Z,58.09
2018-04-29T07:47:34.500Z,58.09
2018-04-29T07:48:34.491Z,57.60
2018-04-29T07:49:34.491Z,57.89
2018-04-29T07:50:34.481Z,57.60
2018-04-29T07:51:34.476Z,57.89
2018-04-29T07:52:34.505Z,57.54
2018-04-29T07:53:34.460Z,57.51
2018-04-29T07:54:34.455Z,57.51
2018-04-29T07:55:34.445Z,57.70
2018-04-29T07:56:34.441Z,57.79
2018-04-29T07:57:34.432Z,56.93
2018-04-29T07:58:34.434Z,57.15
2018-04-29T07:59:34.419Z,57.05
2018-04-29T08:00:34.414Z,57.05
2018-04-29T08:01:34.440Z,56.95
2018-04-29T08:02:34.443Z,57.12
2018-04-29T08:03:34.394Z,57.31
2018-04-29T08:04:34.388Z,56.95
2018-04-29T08:05:34.388Z,56.95
2018-04-29T08:06:34.376Z,57.05
2018-04-29T08:07:34.368Z,56.86
2018-04-29T08:08:34.362Z,56.57
2018-04-29T08:09:34.357Z,56.28
2018-04-29T08:10:34.350Z,56.09
2018-04-29T08:11:34.344Z,56.47
2018-04-29T08:12:34.339Z,56.37
2018-04-29T08:13:34.339Z,56.09
2018-04-29T08:14:34.325Z,55.73
2018-04-29T08:15:34.422Z,55.73
2018-04-29T08:16:34.308Z,55.63
2018-04-29T08:17:34.306Z,55.82
2018-04-29T08:18:34.300Z,56.02
2018-04-29T08:19:34.290Z,55.43
2018-04-29T08:20:34.287Z,55.34
2018-04-29T08:21:34.280Z,55.43
2018-04-29T08:22:34.283Z,55.24
2018-04-29T08:23:34.267Z,55.24
2018-04-29T08:24:34.257Z,55.05
2018-04-29T08:25:34.260Z,54.85
2018-04-29T08:26:34.251Z,54.95
2018-04-29T08:27:34.246Z,55.07
2018-04-29T08:28:34.249Z,54.95
2018-04-29T08:29:34.227Z,54.75
2018-04-29T08:30:34.223Z,55.24
2018-04-29T08:31:34.215Z,55.05
2018-04-29T08:32:34.210Z,55.34
2018-04-29T08:33:34.205Z,55.53
2018-04-29T08:34:34.197Z,55.24
2018-04-29T08:35:34.190Z,55.15
2018-04-29T08:36:34.185Z,55.43
2018-04-29T08:37:34.182Z,55.43
2018-04-29T08:38:34.174Z,55.53
2018-04-29T08:39:34.164Z,55.43
2018-04-29T08:40:34.162Z,55.53
2018-04-29T08:41:34.152Z,55.53
2018-04-29T08:42:34.145Z,55.24
2018-04-29T08:43:34.147Z,55.89
2018-04-29T08:44:34.135Z,55.31
2018-04-29T08:45:34.127Z,55.99
2018-04-29T08:46:34.121Z,56.09
2018-04-29T08:47:34.114Z,55.99
2018-04-29T08:48:34.131Z,55.70
2018-04-29T08:49:34.101Z,55.79
2018-04-29T08:50:34.096Z,55.99
2018-04-29T08:51:34.092Z,55.70
2018-04-29T08:52:34.089Z,55.79
2018-04-29T08:53:34.077Z,55.79
2018-04-29T08:54:34.069Z,55.79
2018-04-29T08:55:34.064Z,56.09
2018-04-29T08:56:34.058Z,55.41
2018-04-29T08:57:34.052Z,55.31
2018-04-29T08:58:34.049Z,55.21
2018-04-29T08:59:34.038Z,55.15
2018-04-29T09:00:34.031Z,55.05
2018-04-29T09:01:34.029Z,54.85
2018-04-29T09:02:34.020Z,55.05
2018-04-29T09:03:34.021Z,54.95
2018-04-29T09:04:34.006Z,54.47
2018-04-29T09:05:33.999Z,54.66
2018-04-29T09:06:33.993Z,54.69
2018-04-29T09:07:33.990Z,54.30
2018-04-29T09:08:33.981Z,54.39
2018-04-29T09:09:33.969Z,54.21
2018-04-29T09:10:33.969Z,54.11
2018-04-29T09:11:33.981Z,54.21
2018-04-29T09:12:33.957Z,54.21
2018-04-29T09:13:33.951Z,53.72
2018-04-29T09:14:33.953Z,53.72
2018-04-29T09:15:33.938Z,53.55
2018-04-29T09:16:33.930Z,53.75
2018-04-29T09:17:33.989Z,53.63
2018-04-29T09:18:33.921Z,53.85
2018-04-29T09:19:33.943Z,53.45
2018-04-29T09:20:33.907Z,53.45
2018-04-29T09:21:33.902Z,53.94
2018-04-29T09:22:33.899Z,53.85
2018-04-29T09:23:33.888Z,53.85
2018-04-29T09:24:33.882Z,53.81
2018-04-29T09:25:33.875Z,54.03
2018-04-29T09:26:33.870Z,53.45
2018-04-29T09:27:33.863Z,53.36
2018-04-29T09:28:33.858Z,53.17
2018-04-29T09:29:33.857Z,52.97
2018-04-29T09:30:33.850Z,53.26
2018-04-29T09:31:33.840Z,53.17
2018-04-29T09:32:33.834Z,53.36
2018-04-29T09:33:33.829Z,53.55
2018-04-29T09:34:33.824Z,53.45
2018-04-29T09:35:33.820Z,53.07
2018-04-29T09:36:33.815Z,53.36
2018-04-29T09:37:33.806Z,53.36
2018-04-29T09:38:33.801Z,52.97
2018-04-29T09:39:33.798Z,53.07
2018-04-29T09:40:33.785Z,52.87
2018-04-29T09:41:33.780Z,53.07
2018-04-29T09:42:33.773Z,52.87
2018-04-29T09:43:33.880Z,52.87
2018-04-29T09:44:33.762Z,53.17
2018-04-29T09:45:33.758Z,52.97
2018-04-29T09:46:33.750Z,53.26
2018-04-29T09:47:33.742Z,53.36
2018-04-29T09:48:33.765Z,53.26
2018-04-29T09:49:33.734Z,52.97
2018-04-29T09:50:33.726Z,52.87
2018-04-29T09:51:33.720Z,52.78
2018-04-29T09:52:33.714Z,52.87
2018-04-29T09:53:33.715Z,52.49
2018-04-29T09:54:33.722Z,52.51
2018-04-29T09:55:33.710Z,52.22
2018-04-29T09:56:33.693Z,52.51
2018-04-29T09:57:33.685Z,52.42
2018-04-29T09:58:33.681Z,52.61
2018-04-29T09:59:33.671Z,52.71
2018-04-29T10:00:33.668Z,52.32
2018-04-29T10:01:33.662Z,52.34
2018-04-29T10:02:33.665Z,52.22
2018-04-29T10:03:33.650Z,52.54
2018-04-29T10:04:33.653Z,52.15
2018-04-29T10:05:33.640Z,52.15
2018-04-29T10:06:33.635Z,51.67
2018-04-29T10:07:33.629Z,51.96
2018-04-29T10:08:33.621Z,51.96
2018-04-29T10:09:33.640Z,51.96
2018-04-29T10:10:33.611Z,51.86
2018-04-29T10:11:33.605Z,52.06
2018-04-29T10:12:33.599Z,51.86
2018-04-29T10:13:33.593Z,51.57
2018-04-29T10:14:33.589Z,51.57
2018-04-29T10:15:33.581Z,51.96
2018-04-29T10:16:33.578Z,51.96
2018-04-29T10:17:33.575Z,51.76
2018-04-29T10:18:33.565Z,51.28
2018-04-29T10:19:33.559Z,51.47
2018-04-29T10:20:33.553Z,51.57
2018-04-29T10:21:33.550Z,51.28
2018-04-29T10:22:33.541Z,51.67
2018-04-29T10:23:33.539Z,51.28
2018-04-29T10:24:33.537Z,51.67
2018-04-29T10:25:33.530Z,51.67
2018-04-29T10:26:33.528Z,51.79
2018-04-29T10:27:33.516Z,51.28
2018-04-29T10:28:33.513Z,51.09
2018-04-29T10:29:33.506Z,51.18
2018-04-29T10:30:33.500Z,51.21
2018-04-29T10:31:33.508Z,51.11
2018-04-29T10:32:33.493Z,51.21
2018-04-29T10:33:33.483Z,50.92
2018-04-29T10:34:33.478Z,50.92
2018-04-29T10:35:33.473Z,51.21
2018-04-29T10:36:33.470Z,51.21
2018-04-29T10:37:33.464Z,50.62
2018-04-29T10:38:33.457Z,50.72
2018-04-29T10:39:33.452Z,50.82
2018-04-29T10:40:33.445Z,51.01
2018-04-29T10:41:33.439Z,50.92
2018-04-29T10:42:33.444Z,50.82
2018-04-29T10:43:33.435Z,51.21
2018-04-29T10:44:33.435Z,51.11
2018-04-29T10:45:33.426Z,51.11
2018-04-29T10:46:33.415Z,51.11
2018-04-29T10:47:33.408Z,51.01
2018-04-29T10:48:33.401Z,51.01
2018-04-29T10:49:33.399Z,50.92
2018-04-29T10:50:33.393Z,51.01
2018-04-29T10:51:33.385Z,50.72
2018-04-29T10:52:33.482Z,51.01
2018-04-29T10:53:33.377Z,50.92
2018-04-29T10:54:33.374Z,50.72
2018-04-29T10:55:33.365Z,50.62
2018-04-29T10:56:33.393Z,50.62
2018-04-29T10:57:33.355Z,50.53
2018-04-29T10:58:33.347Z,50.72
2018-04-29T10:59:33.343Z,50.62
2018-04-29T11:00:33.338Z,50.72
2018-04-29T11:01:33.337Z,50.53
2018-04-29T11:02:33.331Z,50.34
2018-04-29T11:03:33.325Z,50.53
2018-04-29T11:04:33.319Z,50.92
2018-04-29T11:05:33.312Z,50.72
2018-04-29T11:06:33.309Z,50.72
2018-04-29T11:07:33.301Z,50.72
2018-04-29T11:08:33.300Z,50.82
2018-04-29T11:09:33.293Z,51.01
2018-04-29T11:10:33.290Z,50.82
2018-04-29T11:11:33.281Z,50.43
2018-04-29T11:12:33.280Z,50.43
2018-04-29T11:13:33.270Z,49.95
2018-04-29T11:14:33.267Z,50.14
2018-04-29T11:15:33.262Z,50.04
2018-04-29T11:16:33.255Z,50.14
2018-04-29T11:17:33.249Z,50.16
2018-04-29T11:18:33.245Z,50.14
2018-04-29T11:19:33.246Z,50.14
2018-04-29T11:20:33.239Z,50.04
2018-04-29T11:21:33.229Z,50.14
2018-04-29T11:22:33.224Z,50.14
2018-04-29T11:23:33.222Z,50.14
2018-04-29T11:24:33.217Z,49.95
2018-04-29T11:25:33.298Z,50.24
2018-04-29T11:26:33.202Z,50.04
2018-04-29T11:27:33.198Z,50.14
2018-04-29T11:28:33.230Z,49.95
2018-04-29T11:29:33.190Z,50.24
2018-04-29T11:30:33.188Z,50.14
2018-04-29T11:31:33.176Z,50.14
2018-04-29T11:32:33.171Z,49.95
2018-04-29T11:33:33.168Z,50.53
2018-04-29T11:34:33.161Z,50.53
2018-04-29T11:35:33.153Z,50.53
2018-04-29T11:36:33.152Z,50.53
2018-04-29T11:37:33.148Z,50.62
2018-04-29T11:38:33.154Z,50.82
2018-04-29T11:39:33.133Z,50.92
2018-04-29T11:40:33.144Z,50.99
2018-04-29T11:41:33.124Z,50.70
2018-04-29T11:42:33.124Z,50.89
2018-04-29T11:43:33.115Z,50.70
2018-04-29T11:44:33.107Z,50.50
2018-04-29T11:45:33.107Z,50.50
2018-04-29T11:46:33.098Z,50.79
2018-04-29T11:47:33.090Z,50.70
2018-04-29T11:48:33.091Z,50.70
2018-04-29T11:49:33.084Z,50.60
2018-04-29T11:50:33.076Z,50.70
2018-04-29T11:51:33.075Z,50.79
2018-04-29T11:52:33.064Z,50.60
2018-04-29T11:53:33.059Z,50.50
2018-04-29T11:54:33.056Z,50.70
2018-04-29T11:55:33.052Z,50.70
2018-04-29T11:56:33.055Z,50.79
2018-04-29T11:57:33.038Z,50.50
2018-04-29T11:58:33.034Z,50.70
2018-04-29T11:59:33.034Z,50.89
2018-04-29T12:00:33.022Z,50.99
2018-04-29T12:01:33.016Z,50.89
2018-04-29T12:02:33.071Z,50.99
2018-04-29T12:03:33.006Z,50.70
2018-04-29T12:04:33.003Z,50.70
2018-04-29T12:05:33.001Z,50.70
2018-04-29T12:06:32.994Z,50.70
2018-04-29T12:07:32.986Z,50.70
2018-04-29T12:08:32.978Z,50.70
2018-04-29T12:09:32.974Z,50.70
2018-04-29T12:10:32.969Z,50.60
2018-04-29T12:11:32.962Z,50.60
2018-04-29T12:12:32.960Z,50.70
2018-04-29T12:13:32.958Z,50.70
2018-04-29T12:14:32.946Z,50.70
2018-04-29T12:15:32.945Z,50.70
2018-04-29T12:16:33.029Z,50.70
2018-04-29T12:17:32.932Z,50.70
2018-04-29T12:18:32.926Z,50.70
2018-04-29T12:19:32.925Z,50.50
2018-04-29T12:20:32.916Z,50.60
2018-04-29T12:21:32.911Z,50.60
2018-04-29T12:22:32.911Z,50.70
2018-04-29T12:23:32.903Z,50.41
2018-04-29T12:24:32.936Z,50.50
2018-04-29T12:25:32.891Z,50.50
2018-04-29T12:26:32.888Z,50.79
2018-04-29T12:27:32.879Z,50.70
2018-04-29T12:28:32.875Z,50.70
2018-04-29T12:29:32.863Z,50.60
2018-04-29T12:30:32.861Z,50.70
2018-04-29T12:31:32.860Z,50.50
2018-04-29T12:32:32.856Z,50.60
2018-04-29T12:33:32.858Z,50.70
2018-04-29T12:34:32.844Z,50.79
2018-04-29T12:35:32.831Z,51.09
2018-04-29T12:36:32.827Z,51.09
2018-04-29T12:37:32.822Z,50.99
2018-04-29T12:38:32.818Z,51.09
2018-04-29T12:39:32.822Z,50.77
2018-04-29T12:40:32.806Z,50.89
2018-04-29T12:41:32.809Z,50.99
2018-04-29T12:42:32.796Z,50.79
2018-04-29T12:43:32.789Z,50.77
2018-04-29T12:44:32.786Z,50.89
2018-04-29T12:45:32.781Z,50.70
2018-04-29T12:46:32.776Z,50.77
2018-04-29T12:47:32.766Z,50.99
2018-04-29T12:48:32.765Z,50.99
2018-04-29T12:49:32.760Z,50.87
2018-04-29T12:50:32.758Z,50.96
2018-04-29T12:51:32.745Z,51.16
2018-04-29T12:52:32.739Z,51.16